Aeroporto :
LOGIN :

Iscrizione | Disclaimer

   EN    FR    IT 

 










Sommario :    VFR   VFR Marginale   IFR   IFR Intensivo   IFR Molto Intensivo
Visibilità : 
Base nubi : 
>= 8 km
>= 3000ft
5 / 8 km
1000 / 3000 ft
1500m / 5 km
500 / 1000 ft
800 / 1500m
200 / 500 ft
< 800m
< 200 ft
Simboli :   Temporali  Nebbia  Neve Forte  Precipitazioni Forti  Vento > 20 kt
SIGMETs :   Varie  Temporali  Ghiacco  Turbolenza  Onda orograficha  Ceneri Vulcaniche







- Altitudine del aeroporto : 1090 ft
- Codice IATA : CFE
- Carte del aeroporto


LFLC - Clermont-Ferrand Auvergne

ULTIMO METAR :
  • 211830Z AUTO 35006KT 9999 FEW001 BKN076 29/14 Q1021 NOSIG

METARs OBSOLETI :
  • 211800Z AUTO 01006KT 330V040 CAVOK 30/14 Q1021 NOSIG
  • 211730Z AUTO 01007KT 340V050 CAVOK 30/15 Q1021 NOSIG
  • 211700Z AUTO 01005KT 320V060 CAVOK 30/14 Q1021 NOSIG
  • 211630Z AUTO 34007KT 310V040 CAVOK 30/14 Q1020 NOSIG
  • 211600Z AUTO 01007KT 330V040 9999 FEW066 SCT096 30/15 Q1020 NOSIG

TAF TAF LFLC
Valido dal 21 a 15 ore il 22 a 15 ore UTC


211400Z 2115/2215 VRB03KT 9999 SCT060
BECMG 2118/2121 36008KT CAVOK
BECMG 2200/2203 VRB03KT
TEMPO 2212/2215 04005KT
ATIS : +33 4 73 62 74 38
Nessun NOTAM noto per questo aeroporto.



MetMap, La meteo Aeronautica in un colpo d'occhio ! - Copyright ORBIFLY Dicembre 2007 - Disclaimer

ORBIFLY MET'MAP TEAM :

Programmazione e sviluppo : Alexandra Zaïnal
Concezione e sviluppo : Baudouin d'Aumeries
Co-Programmazione e sviluppo : Marc-Olivier Méhu
Supporto tecnico e logistico : Manuel Goepfert
Aiuto per la traduzione : Arnaldo La Scala

Contatto : metmap@orbifly.com




FONTI E CREDITI :

   NOAA